sensor_id;sensor_type;location;lat;lon;timestamp;temperature;humidity
1155;DHT22;566;48.414;9.118;2022-11-14T00:00:06;0.80;67.70
1155;DHT22;566;48.414;9.118;2022-11-14T00:02:32;1.00;67.30
1155;DHT22;566;48.414;9.118;2022-11-14T00:04:58;1.10;67.40
1155;DHT22;566;48.414;9.118;2022-11-14T00:07:24;1.20;67.40
1155;DHT22;566;48.414;9.118;2022-11-14T00:09:52;1.20;67.30
1155;DHT22;566;48.414;9.118;2022-11-14T00:12:18;1.40;66.70
1155;DHT22;566;48.414;9.118;2022-11-14T00:14:43;1.40;67.90
1155;DHT22;566;48.414;9.118;2022-11-14T00:17:09;1.20;69.30
1155;DHT22;566;48.414;9.118;2022-11-14T00:19:35;1.10;69.80
1155;DHT22;566;48.414;9.118;2022-11-14T00:22:00;0.90;70.70
1155;DHT22;566;48.414;9.118;2022-11-14T00:24:26;0.80;69.00
1155;DHT22;566;48.414;9.118;2022-11-14T00:26:51;0.80;69.30
1155;DHT22;566;48.414;9.118;2022-11-14T00:29:17;0.80;68.20
1155;DHT22;566;48.414;9.118;2022-11-14T00:31:43;0.80;68.70
1155;DHT22;566;48.414;9.118;2022-11-14T00:34:08;0.80;68.70
1155;DHT22;566;48.414;9.118;2022-11-14T00:36:35;0.80;68.60
1155;DHT22;566;48.414;9.118;2022-11-14T00:39:01;0.70;69.40
1155;DHT22;566;48.414;9.118;2022-11-14T00:41:26;0.70;69.20
1155;DHT22;566;48.414;9.118;2022-11-14T00:43:52;0.80;68.90
1155;DHT22;566;48.414;9.118;2022-11-14T00:46:18;0.80;69.20
1155;DHT22;566;48.414;9.118;2022-11-14T00:48:43;0.90;69.40
1155;DHT22;566;48.414;9.118;2022-11-14T00:51:09;0.90;69.10
1155;DHT22;566;48.414;9.118;2022-11-14T00:53:38;1.00;69.50
1155;DHT22;566;48.414;9.118;2022-11-14T00:56:04;1.00;69.20
1155;DHT22;566;48.414;9.118;2022-11-14T00:58:30;1.00;69.90
1155;DHT22;566;48.414;9.118;2022-11-14T01:00:56;1.00;71.20
1155;DHT22;566;48.414;9.118;2022-11-14T01:03:21;0.90;70.80
1155;DHT22;566;48.414;9.118;2022-11-14T01:05:48;0.90;69.70
1155;DHT22;566;48.414;9.118;2022-11-14T01:08:16;0.90;70.80
1155;DHT22;566;48.414;9.118;2022-11-14T01:10:47;0.80;72.70
1155;DHT22;566;48.414;9.118;2022-11-14T01:13:14;0.70;71.50
1155;DHT22;566;48.414;9.118;2022-11-14T01:15:41;0.70;70.50
1155;DHT22;566;48.414;9.118;2022-11-14T01:18:09;0.80;69.10
1155;DHT22;566;48.414;9.118;2022-11-14T01:20:41;0.80;69.30
1155;DHT22;566;48.414;9.118;2022-11-14T01:23:11;0.80;69.90
1155;DHT22;566;48.414;9.118;2022-11-14T01:25:38;0.90;69.50
1155;DHT22;566;48.414;9.118;2022-11-14T01:28:08;0.80;70.40
1155;DHT22;566;48.414;9.118;2022-11-14T01:30:35;0.80;71.80
1155;DHT22;566;48.414;9.118;2022-11-14T01:33:01;0.70;71.10
1155;DHT22;566;48.414;9.118;2022-11-14T01:35:27;0.80;70.10
1155;DHT22;566;48.414;9.118;2022-11-14T01:37:53;0.80;69.80
1155;DHT22;566;48.414;9.118;2022-11-14T01:40:18;0.80;68.70
1155;DHT22;566;48.414;9.118;2022-11-14T01:48:54;0.80;68.40
1155;DHT22;566;48.414;9.118;2022-11-14T01:51:38;0.90;68.60
1155;DHT22;566;48.414;9.118;2022-11-14T01:54:10;0.80;69.30
1155;DHT22;566;48.414;9.118;2022-11-14T01:56:46;0.70;70.00
1155;DHT22;566;48.414;9.118;2022-11-14T01:59:17;0.70;68.50
1155;DHT22;566;48.414;9.118;2022-11-14T02:01:47;0.80;68.00
1155;DHT22;566;48.414;9.118;2022-11-14T02:04:18;0.70;68.30
1155;DHT22;566;48.414;9.118;2022-11-14T02:06:45;0.70;68.70
1155;DHT22;566;48.414;9.118;2022-11-14T02:09:12;0.80;67.90
1155;DHT22;566;48.414;9.118;2022-11-14T02:11:41;0.90;67.50
1155;DHT22;566;48.414;9.118;2022-11-14T02:14:08;0.90;67.80
1155;DHT22;566;48.414;9.118;2022-11-14T02:16:34;0.90;67.90
1155;DHT22;566;48.414;9.118;2022-11-14T02:19:00;0.90;67.80
1155;DHT22;566;48.414;9.118;2022-11-14T02:21:25;1.00;67.40
1155;DHT22;566;48.414;9.118;2022-11-14T02:23:51;1.10;67.50
1155;DHT22;566;48.414;9.118;2022-11-14T02:26:22;1.00;68.20
1155;DHT22;566;48.414;9.118;2022-11-14T02:28:48;1.10;67.60
1155;DHT22;566;48.414;9.118;2022-11-14T02:31:15;1.10;67.60
1155;DHT22;566;48.414;9.118;2022-11-14T02:33:41;1.10;67.30
1155;DHT22;566;48.414;9.118;2022-11-14T02:36:07;1.20;67.40
1155;DHT22;566;48.414;9.118;2022-11-14T02:38:32;1.40;66.80
1155;DHT22;566;48.414;9.118;2022-11-14T02:40:59;1.50;66.70
1155;DHT22;566;48.414;9.118;2022-11-14T02:43:25;1.60;67.10
1155;DHT22;566;48.414;9.118;2022-11-14T02:45:51;1.80;66.30
1155;DHT22;566;48.414;9.118;2022-11-14T02:48:16;2.20;65.60
1155;DHT22;566;48.414;9.118;2022-11-14T02:50:42;2.50;66.10
1155;DHT22;566;48.414;9.118;2022-11-14T02:53:08;2.60;67.90
1155;DHT22;566;48.414;9.118;2022-11-14T02:55:34;2.70;69.80
1155;DHT22;566;48.414;9.118;2022-11-14T02:57:59;2.80;72.60
1155;DHT22;566;48.414;9.118;2022-11-14T03:00:25;2.90;73.70
1155;DHT22;566;48.414;9.118;2022-11-14T03:02:52;2.90;76.50
1155;DHT22;566;48.414;9.118;2022-11-14T03:05:18;2.90;78.00
1155;DHT22;566;48.414;9.118;2022-11-14T03:07:44;3.10;78.50
1155;DHT22;566;48.414;9.118;2022-11-14T03:10:10;3.00;81.30
1155;DHT22;566;48.414;9.118;2022-11-14T03:12:36;2.90;81.30
1155;DHT22;566;48.414;9.118;2022-11-14T03:15:04;2.80;81.20
1155;DHT22;566;48.414;9.118;2022-11-14T03:17:31;2.90;78.00
1155;DHT22;566;48.414;9.118;2022-11-14T03:19:57;3.20;77.10
1155;DHT22;566;48.414;9.118;2022-11-14T03:22:23;3.50;80.30
1155;DHT22;566;48.414;9.118;2022-11-14T03:24:49;3.50;83.90
1155;DHT22;566;48.414;9.118;2022-11-14T03:27:14;3.40;84.20
1155;DHT22;566;48.414;9.118;2022-11-14T03:29:40;3.40;83.40
1155;DHT22;566;48.414;9.118;2022-11-14T03:32:05;3.30;84.80
1155;DHT22;566;48.414;9.118;2022-11-14T03:34:31;3.30;84.50
1155;DHT22;566;48.414;9.118;2022-11-14T03:36:57;3.30;83.80
1155;DHT22;566;48.414;9.118;2022-11-14T03:39:22;3.50;84.20
1155;DHT22;566;48.414;9.118;2022-11-14T03:41:48;3.50;86.50
1155;DHT22;566;48.414;9.118;2022-11-14T03:44:19;3.60;87.00
1155;DHT22;566;48.414;9.118;2022-11-14T03:46:44;3.60;87.00
1155;DHT22;566;48.414;9.118;2022-11-14T03:49:10;3.60;87.20
1155;DHT22;566;48.414;9.118;2022-11-14T03:51:36;3.70;86.90
1155;DHT22;566;48.414;9.118;2022-11-14T03:54:01;3.70;87.70
1155;DHT22;566;48.414;9.118;2022-11-14T03:56:27;3.80;88.00
1155;DHT22;566;48.414;9.118;2022-11-14T03:58:52;4.00;87.80
1155;DHT22;566;48.414;9.118;2022-11-14T04:01:18;4.20;89.10
1155;DHT22;566;48.414;9.118;2022-11-14T04:03:44;4.40;91.70
1155;DHT22;566;48.414;9.118;2022-11-14T04:06:09;4.50;93.10
1155;DHT22;566;48.414;9.118;2022-11-14T04:08:35;4.50;92.90
1155;DHT22;566;48.414;9.118;2022-11-14T04:11:01;4.60;92.80
1155;DHT22;566;48.414;9.118;2022-11-14T04:13:27;4.70;93.80
1155;DHT22;566;48.414;9.118;2022-11-14T04:15:54;4.80;94.60
1155;DHT22;566;48.414;9.118;2022-11-14T04:18:20;5.00;96.60
1155;DHT22;566;48.414;9.118;2022-11-14T04:20:46;5.10;97.60
1155;DHT22;566;48.414;9.118;2022-11-14T04:23:12;5.40;98.00
1155;DHT22;566;48.414;9.118;2022-11-14T04:25:37;5.70;98.00
1155;DHT22;566;48.414;9.118;2022-11-14T04:28:03;6.10;98.00
1155;DHT22;566;48.414;9.118;2022-11-14T04:30:29;6.20;98.00
1155;DHT22;566;48.414;9.118;2022-11-14T04:32:54;6.20;98.00
1155;DHT22;566;48.414;9.118;2022-11-14T04:35:20;6.20;98.00
1155;DHT22;566;48.414;9.118;2022-11-14T04:37:45;6.30;98.00
1155;DHT22;566;48.414;9.118;2022-11-14T04:40:11;6.40;98.00
1155;DHT22;566;48.414;9.118;2022-11-14T04:42:43;6.70;98.00
1155;DHT22;566;48.414;9.118;2022-11-14T04:45:09;6.90;98.00
1155;DHT22;566;48.414;9.118;2022-11-14T04:47:35;7.00;98.00
1155;DHT22;566;48.414;9.118;2022-11-14T04:50:01;7.00;98.00
1155;DHT22;566;48.414;9.118;2022-11-14T04:52:27;7.00;98.00
1155;DHT22;566;48.414;9.118;2022-11-14T04:54:53;7.00;98.00
1155;DHT22;566;48.414;9.118;2022-11-14T04:57:19;7.10;98.00
1155;DHT22;566;48.414;9.118;2022-11-14T04:59:44;7.20;98.00
1155;DHT22;566;48.414;9.118;2022-11-14T05:02:10;7.30;98.00
1155;DHT22;566;48.414;9.118;2022-11-14T05:04:36;7.30;98.00
1155;DHT22;566;48.414;9.118;2022-11-14T05:07:02;7.20;98.00
1155;DHT22;566;48.414;9.118;2022-11-14T05:09:27;7.00;98.00
1155;DHT22;566;48.414;9.118;2022-11-14T05:11:53;6.70;98.00
1155;DHT22;566;48.414;9.118;2022-11-14T05:14:19;6.50;98.00
1155;DHT22;566;48.414;9.118;2022-11-14T05:16:44;6.40;98.00
1155;DHT22;566;48.414;9.118;2022-11-14T05:19:10;6.40;98.00
1155;DHT22;566;48.414;9.118;2022-11-14T05:21:38;6.40;98.00
1155;DHT22;566;48.414;9.118;2022-11-14T05:24:03;6.50;98.00
1155;DHT22;566;48.414;9.118;2022-11-14T05:26:29;6.50;98.00
1155;DHT22;566;48.414;9.118;2022-11-14T05:28:55;6.60;98.00
1155;DHT22;566;48.414;9.118;2022-11-14T05:31:20;6.70;98.00
1155;DHT22;566;48.414;9.118;2022-11-14T05:33:49;6.70;98.00
1155;DHT22;566;48.414;9.118;2022-11-14T05:36:16;6.70;98.00
1155;DHT22;566;48.414;9.118;2022-11-14T05:38:42;6.60;98.00
1155;DHT22;566;48.414;9.118;2022-11-14T05:41:13;6.50;98.00
1155;DHT22;566;48.414;9.118;2022-11-14T05:43:39;6.60;98.00
1155;DHT22;566;48.414;9.118;2022-11-14T05:46:08;6.60;98.00
1155;DHT22;566;48.414;9.118;2022-11-14T05:48:34;6.50;98.00
1155;DHT22;566;48.414;9.118;2022-11-14T05:51:01;6.50;98.00
1155;DHT22;566;48.414;9.118;2022-11-14T05:53:28;6.50;98.00
1155;DHT22;566;48.414;9.118;2022-11-14T05:55:58;6.50;98.00
1155;DHT22;566;48.414;9.118;2022-11-14T05:58:24;6.60;98.00
1155;DHT22;566;48.414;9.118;2022-11-14T06:00:59;6.70;98.00
1155;DHT22;566;48.414;9.118;2022-11-14T06:03:30;6.90;98.00
1155;DHT22;566;48.414;9.118;2022-11-14T06:05:55;7.10;98.00
1155;DHT22;566;48.414;9.118;2022-11-14T06:08:21;7.20;98.00
1155;DHT22;566;48.414;9.118;2022-11-14T06:10:49;7.40;98.00
1155;DHT22;566;48.414;9.118;2022-11-14T06:13:17;7.50;98.00
1155;DHT22;566;48.414;9.118;2022-11-14T06:15:43;7.70;98.00
1155;DHT22;566;48.414;9.118;2022-11-14T06:18:09;7.90;98.00
1155;DHT22;566;48.414;9.118;2022-11-14T06:20:35;8.30;98.00
1155;DHT22;566;48.414;9.118;2022-11-14T06:23:00;8.70;98.00
1155;DHT22;566;48.414;9.118;2022-11-14T06:25:26;8.80;98.00
1155;DHT22;566;48.414;9.118;2022-11-14T06:27:52;9.00;97.30
1155;DHT22;566;48.414;9.118;2022-11-14T06:30:17;9.20;96.70
1155;DHT22;566;48.414;9.118;2022-11-14T06:32:43;9.30;96.60
1155;DHT22;566;48.414;9.118;2022-11-14T06:35:08;9.30;96.00
1155;DHT22;566;48.414;9.118;2022-11-14T06:37:40;9.40;95.50
1155;DHT22;566;48.414;9.118;2022-11-14T06:40:06;9.50;95.20
1155;DHT22;566;48.414;9.118;2022-11-14T06:42:32;9.60;95.20
1155;DHT22;566;48.414;9.118;2022-11-14T06:44:57;9.60;95.70
1155;DHT22;566;48.414;9.118;2022-11-14T06:47:23;9.60;94.80
1155;DHT22;566;48.414;9.118;2022-11-14T06:49:49;9.80;93.50
1155;DHT22;566;48.414;9.118;2022-11-14T06:52:14;9.80;93.60
1155;DHT22;566;48.414;9.118;2022-11-14T06:54:40;9.90;93.20
1155;DHT22;566;48.414;9.118;2022-11-14T06:57:05;9.90;93.40
1155;DHT22;566;48.414;9.118;2022-11-14T06:59:31;9.70;94.10
1155;DHT22;566;48.414;9.118;2022-11-14T07:01:57;9.70;93.60
1155;DHT22;566;48.414;9.118;2022-11-14T07:04:22;9.90;93.30
1155;DHT22;566;48.414;9.118;2022-11-14T07:06:48;10.00;92.70
1155;DHT22;566;48.414;9.118;2022-11-14T07:09:14;10.10;92.80
1155;DHT22;566;48.414;9.118;2022-11-14T07:11:39;10.10;92.90
1155;DHT22;566;48.414;9.118;2022-11-14T07:14:05;10.10;93.60
1155;DHT22;566;48.414;9.118;2022-11-14T07:16:33;10.10;94.20
1155;DHT22;566;48.414;9.118;2022-11-14T07:19:05;10.00;94.70
1155;DHT22;566;48.414;9.118;2022-11-14T07:21:34;9.90;96.50
1155;DHT22;566;48.414;9.118;2022-11-14T07:24:00;9.50;98.00
1155;DHT22;566;48.414;9.118;2022-11-14T07:26:25;9.10;98.00
1155;DHT22;566;48.414;9.118;2022-11-14T07:28:54;8.70;97.60
1155;DHT22;566;48.414;9.118;2022-11-14T07:31:20;8.40;96.10
1155;DHT22;566;48.414;9.118;2022-11-14T07:33:46;8.20;94.30
1155;DHT22;566;48.414;9.118;2022-11-14T07:36:13;8.20;95.40
1155;DHT22;566;48.414;9.118;2022-11-14T07:38:39;8.10;94.40
1155;DHT22;566;48.414;9.118;2022-11-14T07:41:07;8.10;94.10
1155;DHT22;566;48.414;9.118;2022-11-14T07:43:36;8.00;92.60
1155;DHT22;566;48.414;9.118;2022-11-14T07:46:05;8.00;92.90
1155;DHT22;566;48.414;9.118;2022-11-14T07:48:31;7.90;90.70
1155;DHT22;566;48.414;9.118;2022-11-14T07:51:01;7.80;89.90
1155;DHT22;566;48.414;9.118;2022-11-14T07:53:28;7.80;89.00
1155;DHT22;566;48.414;9.118;2022-11-14T07:55:55;7.80;89.00
1155;DHT22;566;48.414;9.118;2022-11-14T07:58:21;7.80;88.80
1155;DHT22;566;48.414;9.118;2022-11-14T08:00:47;7.80;89.40
1155;DHT22;566;48.414;9.118;2022-11-14T08:03:13;7.80;88.80
1155;DHT22;566;48.414;9.118;2022-11-14T08:05:38;7.80;89.70
1155;DHT22;566;48.414;9.118;2022-11-14T08:08:04;7.70;88.00
1155;DHT22;566;48.414;9.118;2022-11-14T08:10:30;7.70;88.70
1155;DHT22;566;48.414;9.118;2022-11-14T08:13:00;7.70;88.70
1155;DHT22;566;48.414;9.118;2022-11-14T08:15:26;7.70;88.50
1155;DHT22;566;48.414;9.118;2022-11-14T08:17:56;7.70;88.40
1155;DHT22;566;48.414;9.118;2022-11-14T08:20:21;7.70;88.70
1155;DHT22;566;48.414;9.118;2022-11-14T08:22:47;7.60;88.70
1155;DHT22;566;48.414;9.118;2022-11-14T08:25:13;7.60;87.90
1155;DHT22;566;48.414;9.118;2022-11-14T08:27:38;7.70;89.60
1155;DHT22;566;48.414;9.118;2022-11-14T08:30:04;7.60;89.00
1155;DHT22;566;48.414;9.118;2022-11-14T08:32:30;7.70;89.30
1155;DHT22;566;48.414;9.118;2022-11-14T08:34:56;7.70;88.70
1155;DHT22;566;48.414;9.118;2022-11-14T08:37:21;7.70;88.20
1155;DHT22;566;48.414;9.118;2022-11-14T08:39:47;7.70;87.40
1155;DHT22;566;48.414;9.118;2022-11-14T08:42:13;7.60;87.80
1155;DHT22;566;48.414;9.118;2022-11-14T08:44:38;7.70;88.80
1155;DHT22;566;48.414;9.118;2022-11-14T08:47:04;7.70;89.20
1155;DHT22;566;48.414;9.118;2022-11-14T08:49:30;7.70;90.10
1155;DHT22;566;48.414;9.118;2022-11-14T08:51:55;7.70;90.90
1155;DHT22;566;48.414;9.118;2022-11-14T08:54:21;7.80;91.30
1155;DHT22;566;48.414;9.118;2022-11-14T08:56:47;7.80;91.40
1155;DHT22;566;48.414;9.118;2022-11-14T08:59:12;7.80;91.00
1155;DHT22;566;48.414;9.118;2022-11-14T09:01:38;7.80;91.50
1155;DHT22;566;48.414;9.118;2022-11-14T09:04:03;7.80;91.50
1155;DHT22;566;48.414;9.118;2022-11-14T09:06:29;7.90;91.90
1155;DHT22;566;48.414;9.118;2022-11-14T09:08:55;8.00;93.10
1155;DHT22;566;48.414;9.118;2022-11-14T09:11:21;8.00;91.20
1155;DHT22;566;48.414;9.118;2022-11-14T09:13:46;8.00;92.90
1155;DHT22;566;48.414;9.118;2022-11-14T09:16:12;8.10;96.40
1155;DHT22;566;48.414;9.118;2022-11-14T09:18:38;8.10;95.90
1155;DHT22;566;48.414;9.118;2022-11-14T09:21:06;8.10;96.00
1155;DHT22;566;48.414;9.118;2022-11-14T09:23:33;8.10;94.20
1155;DHT22;566;48.414;9.118;2022-11-14T09:26:07;8.10;96.90
1155;DHT22;566;48.414;9.118;2022-11-14T09:28:33;8.20;96.90
1155;DHT22;566;48.414;9.118;2022-11-14T09:31:04;8.10;95.60
1155;DHT22;566;48.414;9.118;2022-11-14T09:33:34;8.20;98.00
1155;DHT22;566;48.414;9.118;2022-11-14T09:36:02;8.20;97.40
1155;DHT22;566;48.414;9.118;2022-11-14T09:38:28;8.20;94.70
1155;DHT22;566;48.414;9.118;2022-11-14T09:43:46;8.50;95.30
1155;DHT22;566;48.414;9.118;2022-11-14T09:46:23;8.70;95.30
1155;DHT22;566;48.414;9.118;2022-11-14T09:48:51;8.70;97.00
1155;DHT22;566;48.414;9.118;2022-11-14T09:51:29;8.70;98.00
1155;DHT22;566;48.414;9.118;2022-11-14T09:54:17;8.70;98.00
1155;DHT22;566;48.414;9.118;2022-11-14T09:56:45;8.70;96.80
1155;DHT22;566;48.414;9.118;2022-11-14T09:59:12;8.60;97.20
1155;DHT22;566;48.414;9.118;2022-11-14T10:10:53;8.60;96.00
1155;DHT22;566;48.414;9.118;2022-11-14T10:19:26;8.60;96.90
1155;DHT22;566;48.414;9.118;2022-11-14T10:27:44;8.70;96.60
1155;DHT22;566;48.414;9.118;2022-11-14T10:30:15;8.80;98.00
1155;DHT22;566;48.414;9.118;2022-11-14T10:35:30;9.00;98.00
1155;DHT22;566;48.414;9.118;2022-11-14T10:41:00;9.00;98.00
1155;DHT22;566;48.414;9.118;2022-11-14T10:43:47;9.10;98.00
1155;DHT22;566;48.414;9.118;2022-11-14T10:46:18;9.10;98.00
1155;DHT22;566;48.414;9.118;2022-11-14T10:48:47;9.00;98.00
1155;DHT22;566;48.414;9.118;2022-11-14T10:51:41;8.90;98.00
1155;DHT22;566;48.414;9.118;2022-11-14T10:57:27;8.80;98.00
1155;DHT22;566;48.414;9.118;2022-11-14T10:59:53;8.80;97.20
1155;DHT22;566;48.414;9.118;2022-11-14T11:02:20;8.70;96.60
1155;DHT22;566;48.414;9.118;2022-11-14T11:04:45;8.70;96.60
1155;DHT22;566;48.414;9.118;2022-11-14T11:09:59;8.70;97.70
1155;DHT22;566;48.414;9.118;2022-11-14T11:12:46;8.70;97.70
1155;DHT22;566;48.414;9.118;2022-11-14T11:15:21;8.70;98.00
1155;DHT22;566;48.414;9.118;2022-11-14T11:17:58;8.70;97.50
1155;DHT22;566;48.414;9.118;2022-11-14T11:25:36;8.70;97.10
1155;DHT22;566;48.414;9.118;2022-11-14T11:28:21;8.70;97.10
1155;DHT22;566;48.414;9.118;2022-11-14T11:30:56;8.80;97.60
1155;DHT22;566;48.414;9.118;2022-11-14T11:33:25;8.80;98.00
1155;DHT22;566;48.414;9.118;2022-11-14T11:35:55;8.90;98.00
1155;DHT22;566;48.414;9.118;2022-11-14T11:38:25;9.00;98.00
1155;DHT22;566;48.414;9.118;2022-11-14T11:43:44;9.40;98.00
1155;DHT22;566;48.414;9.118;2022-11-14T11:49:49;9.50;98.00
1155;DHT22;566;48.414;9.118;2022-11-14T11:52:33;9.60;98.00
1155;DHT22;566;48.414;9.118;2022-11-14T11:57:44;9.70;98.00
1155;DHT22;566;48.414;9.118;2022-11-14T12:00:15;9.90;98.00
1155;DHT22;566;48.414;9.118;2022-11-14T12:02:44;10.10;98.00
1155;DHT22;566;48.414;9.118;2022-11-14T12:05:41;10.50;98.00
1155;DHT22;566;48.414;9.118;2022-11-14T12:10:53;11.90;97.70
1155;DHT22;566;48.414;9.118;2022-11-14T12:16:33;11.70;96.60
1155;DHT22;566;48.414;9.118;2022-11-14T12:30:20;11.00;97.50
1155;DHT22;566;48.414;9.118;2022-11-14T12:35:20;10.80;97.70
1155;DHT22;566;48.414;9.118;2022-11-14T12:37:48;10.80;97.90
1155;DHT22;566;48.414;9.118;2022-11-14T12:42:52;10.90;97.60
1155;DHT22;566;48.414;9.118;2022-11-14T12:48:41;11.20;97.80
1155;DHT22;566;48.414;9.118;2022-11-14T12:54:44;11.70;96.50
1155;DHT22;566;48.414;9.118;2022-11-14T12:57:16;12.10;94.50
1155;DHT22;566;48.414;9.118;2022-11-14T13:00:06;12.60;94.10
1155;DHT22;566;48.414;9.118;2022-11-14T13:02:55;13.10;91.90
1155;DHT22;566;48.414;9.118;2022-11-14T13:08:37;13.00;90.60
1155;DHT22;566;48.414;9.118;2022-11-14T13:14:17;12.30;93.70
1155;DHT22;566;48.414;9.118;2022-11-14T13:17:24;12.40;92.10
1155;DHT22;566;48.414;9.118;2022-11-14T13:33:47;12.60;89.40
1155;DHT22;566;48.414;9.118;2022-11-14T13:49:42;12.30;90.90
1155;DHT22;566;48.414;9.118;2022-11-14T13:52:17;12.20;91.90
1155;DHT22;566;48.414;9.118;2022-11-14T13:54:47;12.20;92.50
1155;DHT22;566;48.414;9.118;2022-11-14T14:00:10;12.50;90.60
1155;DHT22;566;48.414;9.118;2022-11-14T14:05:39;12.40;89.60
1155;DHT22;566;48.414;9.118;2022-11-14T14:08:15;12.00;90.80
1155;DHT22;566;48.414;9.118;2022-11-14T14:16:35;11.60;91.60
1155;DHT22;566;48.414;9.118;2022-11-14T14:27:23;11.50;91.40
1155;DHT22;566;48.414;9.118;2022-11-14T14:30:09;11.50;92.10
1155;DHT22;566;48.414;9.118;2022-11-14T14:32:36;11.50;91.80
1155;DHT22;566;48.414;9.118;2022-11-14T14:35:24;11.50;92.00
1155;DHT22;566;48.414;9.118;2022-11-14T14:37:52;11.50;92.20
1155;DHT22;566;48.414;9.118;2022-11-14T14:42:50;11.40;92.00
1155;DHT22;566;48.414;9.118;2022-11-14T14:45:19;11.30;92.60
1155;DHT22;566;48.414;9.118;2022-11-14T14:48:05;11.40;92.10
1155;DHT22;566;48.414;9.118;2022-11-14T14:51:05;11.30;92.50
1155;DHT22;566;48.414;9.118;2022-11-14T14:53:34;11.20;92.70
1155;DHT22;566;48.414;9.118;2022-11-14T14:56:19;11.10;93.20
1155;DHT22;566;48.414;9.118;2022-11-14T14:58:45;10.90;94.00
1155;DHT22;566;48.414;9.118;2022-11-14T15:01:13;10.80;94.00
1155;DHT22;566;48.414;9.118;2022-11-14T15:03:45;10.80;93.90
1155;DHT22;566;48.414;9.118;2022-11-14T15:06:31;11.00;93.30
1155;DHT22;566;48.414;9.118;2022-11-14T15:09:12;11.10;92.80
1155;DHT22;566;48.414;9.118;2022-11-14T15:11:43;11.00;93.50
1155;DHT22;566;48.414;9.118;2022-11-14T15:14:18;10.90;93.40
1155;DHT22;566;48.414;9.118;2022-11-14T15:17:08;10.80;93.60
1155;DHT22;566;48.414;9.118;2022-11-14T15:19:40;10.70;94.80
1155;DHT22;566;48.414;9.118;2022-11-14T15:24:42;10.70;94.50
1155;DHT22;566;48.414;9.118;2022-11-14T15:27:16;10.60;94.90
1155;DHT22;566;48.414;9.118;2022-11-14T15:29:47;10.60;94.70
1155;DHT22;566;48.414;9.118;2022-11-14T15:32:24;10.40;95.60
1155;DHT22;566;48.414;9.118;2022-11-14T15:40:37;10.00;97.00
1155;DHT22;566;48.414;9.118;2022-11-14T15:51:57;9.80;97.80
1155;DHT22;566;48.414;9.118;2022-11-14T15:54:33;9.80;97.60
1155;DHT22;566;48.414;9.118;2022-11-14T15:57:04;9.90;97.40
1155;DHT22;566;48.414;9.118;2022-11-14T15:59:30;10.10;96.60
1155;DHT22;566;48.414;9.118;2022-11-14T16:01:58;10.20;96.10
1155;DHT22;566;48.414;9.118;2022-11-14T16:04:33;10.20;96.20
1155;DHT22;566;48.414;9.118;2022-11-14T16:07:00;10.10;96.40
1155;DHT22;566;48.414;9.118;2022-11-14T16:09:25;10.30;95.60
1155;DHT22;566;48.414;9.118;2022-11-14T16:11:51;10.20;96.10
1155;DHT22;566;48.414;9.118;2022-11-14T16:14:16;10.20;96.10
1155;DHT22;566;48.414;9.118;2022-11-14T16:16:42;10.10;96.30
1155;DHT22;566;48.414;9.118;2022-11-14T16:19:12;10.10;96.30
1155;DHT22;566;48.414;9.118;2022-11-14T16:21:39;10.20;96.00
1155;DHT22;566;48.414;9.118;2022-11-14T16:24:06;10.30;95.70
1155;DHT22;566;48.414;9.118;2022-11-14T16:26:36;10.10;96.00
1155;DHT22;566;48.414;9.118;2022-11-14T16:29:02;10.20;96.10
1155;DHT22;566;48.414;9.118;2022-11-14T16:31:28;10.30;95.80
1155;DHT22;566;48.414;9.118;2022-11-14T16:33:53;10.50;95.30
1155;DHT22;566;48.414;9.118;2022-11-14T16:36:21;10.70;94.60
1155;DHT22;566;48.414;9.118;2022-11-14T16:38:47;10.60;94.60
1155;DHT22;566;48.414;9.118;2022-11-14T16:41:13;10.70;94.40
1155;DHT22;566;48.414;9.118;2022-11-14T16:43:40;10.60;94.80
1155;DHT22;566;48.414;9.118;2022-11-14T16:46:06;10.40;95.00
1155;DHT22;566;48.414;9.118;2022-11-14T16:48:32;10.60;93.70
1155;DHT22;566;48.414;9.118;2022-11-14T16:51:04;10.70;93.90
1155;DHT22;566;48.414;9.118;2022-11-14T16:53:30;10.60;94.30
1155;DHT22;566;48.414;9.118;2022-11-14T16:55:56;10.40;94.80
1155;DHT22;566;48.414;9.118;2022-11-14T16:58:23;10.20;95.10
1155;DHT22;566;48.414;9.118;2022-11-14T17:00:49;10.10;95.70
1155;DHT22;566;48.414;9.118;2022-11-14T17:03:15;10.00;95.80
1155;DHT22;566;48.414;9.118;2022-11-14T17:05:42;10.20;95.60
1155;DHT22;566;48.414;9.118;2022-11-14T17:08:08;10.30;95.20
1155;DHT22;566;48.414;9.118;2022-11-14T17:10:39;10.30;95.40
1155;DHT22;566;48.414;9.118;2022-11-14T17:13:04;10.20;95.40
1155;DHT22;566;48.414;9.118;2022-11-14T17:15:30;10.00;96.00
1155;DHT22;566;48.414;9.118;2022-11-14T17:17:59;9.80;96.90
1155;DHT22;566;48.414;9.118;2022-11-14T17:20:25;9.70;97.20
1155;DHT22;566;48.414;9.118;2022-11-14T17:22:51;9.70;97.10
1155;DHT22;566;48.414;9.118;2022-11-14T17:25:16;9.60;97.30
1155;DHT22;566;48.414;9.118;2022-11-14T17:27:42;9.60;97.50
1155;DHT22;566;48.414;9.118;2022-11-14T17:30:11;9.60;97.40
1155;DHT22;566;48.414;9.118;2022-11-14T17:32:39;9.60;97.30
1155;DHT22;566;48.414;9.118;2022-11-14T17:35:05;9.60;97.40
1155;DHT22;566;48.414;9.118;2022-11-14T17:37:32;9.60;97.80
1155;DHT22;566;48.414;9.118;2022-11-14T17:39:57;9.60;97.40
1155;DHT22;566;48.414;9.118;2022-11-14T17:42:23;9.70;97.10
1155;DHT22;566;48.414;9.118;2022-11-14T17:44:49;9.90;96.30
1155;DHT22;566;48.414;9.118;2022-11-14T17:47:18;10.10;95.70
1155;DHT22;566;48.414;9.118;2022-11-14T17:49:44;10.20;94.90
1155;DHT22;566;48.414;9.118;2022-11-14T17:52:12;10.30;94.40
1155;DHT22;566;48.414;9.118;2022-11-14T17:54:38;10.30;94.60
1155;DHT22;566;48.414;9.118;2022-11-14T17:57:04;10.20;94.90
1155;DHT22;566;48.414;9.118;2022-11-14T17:59:32;10.30;94.60
1155;DHT22;566;48.414;9.118;2022-11-14T18:02:02;10.40;93.90
1155;DHT22;566;48.414;9.118;2022-11-14T18:04:27;10.40;93.80
1155;DHT22;566;48.414;9.118;2022-11-14T18:06:55;10.50;93.00
1155;DHT22;566;48.414;9.118;2022-11-14T18:09:21;10.70;92.40
1155;DHT22;566;48.414;9.118;2022-11-14T18:11:47;10.70;92.00
1155;DHT22;566;48.414;9.118;2022-11-14T18:14:13;10.80;91.80
1155;DHT22;566;48.414;9.118;2022-11-14T18:16:39;10.80;91.40
1155;DHT22;566;48.414;9.118;2022-11-14T18:19:05;10.80;91.30
1155;DHT22;566;48.414;9.118;2022-11-14T18:21:31;10.80;91.30
1155;DHT22;566;48.414;9.118;2022-11-14T18:23:58;10.80;91.10
1155;DHT22;566;48.414;9.118;2022-11-14T18:26:26;10.90;90.70
1155;DHT22;566;48.414;9.118;2022-11-14T18:29:02;10.80;91.30
1155;DHT22;566;48.414;9.118;2022-11-14T18:31:28;10.70;91.30
1155;DHT22;566;48.414;9.118;2022-11-14T18:33:54;10.80;91.00
1155;DHT22;566;48.414;9.118;2022-11-14T18:36:21;10.90;90.80
1155;DHT22;566;48.414;9.118;2022-11-14T18:38:47;10.80;91.20
1155;DHT22;566;48.414;9.118;2022-11-14T18:41:20;10.70;91.60
1155;DHT22;566;48.414;9.118;2022-11-14T18:43:46;10.70;91.80
1155;DHT22;566;48.414;9.118;2022-11-14T18:46:15;10.60;91.80
1155;DHT22;566;48.414;9.118;2022-11-14T18:48:44;10.50;92.30
1155;DHT22;566;48.414;9.118;2022-11-14T18:51:12;10.50;92.30
1155;DHT22;566;48.414;9.118;2022-11-14T18:53:38;10.40;92.20
1155;DHT22;566;48.414;9.118;2022-11-14T18:56:05;10.30;92.60
1155;DHT22;566;48.414;9.118;2022-11-14T18:58:32;10.30;92.80
1155;DHT22;566;48.414;9.118;2022-11-14T19:00:58;10.30;92.90
1155;DHT22;566;48.414;9.118;2022-11-14T19:03:31;10.20;93.30
1155;DHT22;566;48.414;9.118;2022-11-14T19:06:01;10.20;93.20
1155;DHT22;566;48.414;9.118;2022-11-14T19:08:27;10.30;93.30
1155;DHT22;566;48.414;9.118;2022-11-14T19:10:54;10.20;93.40
1155;DHT22;566;48.414;9.118;2022-11-14T19:13:24;10.10;93.90